Time;durP1;ratioP1;P1;durP2;ratioP2;P2;SDS_P1;SDS_P2;PMS_P1;PMS_P2;Temp;Humidity;BMP_temperature;BMP_pressure;BME280_temperature;BME280_humidity;BME280_pressure;Samples;Min_cycle;Max_cycle;Signal;HPM_P1;HPM_P2
2023/01/04 00:02:15;;;;;;;12.95;11.50;;;3.60;99.90;;;;;;6088804;23;20267;-68
2023/01/04 00:04:42;;;;;;;12.70;11.50;;;3.60;99.90;;;;;;6090647;23;20299;-68
2023/01/04 00:07:09;;;;;;;12.95;11.50;;;3.60;99.90;;;;;;6091067;23;20398;-68
2023/01/04 00:09:37;;;;;;;13.95;12.05;;;3.60;99.90;;;;;;6089948;23;20682;-68
2023/01/04 00:12:04;;;;;;;12.65;10.05;;;3.60;99.90;;;;;;6090694;23;20192;-68
2023/01/04 00:14:31;;;;;;;12.55;11.30;;;3.60;99.90;;;;;;6080397;23;20629;-68
2023/01/04 00:16:59;;;;;;;12.48;11.27;;;3.70;99.90;;;;;;6083432;23;20191;-68
2023/01/04 00:19:27;;;;;;;13.05;11.68;;;3.70;99.90;;;;;;6085549;23;20727;-68
2023/01/04 00:21:53;;;;;;;12.95;11.77;;;3.70;99.90;;;;;;6090855;23;20192;-68
2023/01/04 00:24:21;;;;;;;12.57;11.43;;;3.70;99.90;;;;;;6088138;23;20509;-68
2023/01/04 00:26:48;;;;;;;11.98;10.88;;;3.70;99.90;;;;;;6090601;23;20258;-68
2023/01/04 00:29:14;;;;;;;12.20;11.02;;;3.60;99.90;;;;;;6090026;23;20220;-68
2023/01/04 00:31:43;;;;;;;12.00;10.90;;;3.60;99.90;;;;;;6088696;23;20685;-68
2023/01/04 00:34:13;;;;;;;12.30;11.10;;;3.60;99.90;;;;;;6087958;23;20232;-68
2023/01/04 00:36:41;;;;;;;11.90;10.90;;;3.60;99.90;;;;;;6086870;23;20588;-68
2023/01/04 00:39:13;;;;;;;12.40;11.23;;;3.60;99.90;;;;;;6085673;23;20275;-68
2023/01/04 00:41:42;;;;;;;13.18;11.88;;;3.60;99.90;;;;;;6080521;23;20660;-68
2023/01/04 00:44:10;;;;;;;12.65;11.48;;;3.60;99.90;;;;;;6083972;23;20307;-68
2023/01/04 00:46:38;;;;;;;13.48;12.27;;;3.50;99.90;;;;;;6088056;23;20246;-68
2023/01/04 00:49:06;;;;;;;13.10;11.90;;;3.50;99.90;;;;;;6087458;23;20196;-69
2023/01/04 00:51:36;;;;;;;13.30;11.90;;;3.50;99.90;;;;;;6088245;23;20192;-68
2023/01/04 00:54:05;;;;;;;13.57;12.38;;;3.40;99.90;;;;;;6078369;23;20295;-68
2023/01/04 00:56:33;;;;;;;12.95;11.75;;;3.40;99.90;;;;;;6091321;23;20187;-69
2023/01/04 00:59:02;;;;;;;12.88;11.70;;;3.40;99.90;;;;;;6087608;23;20279;-68
2023/01/04 01:01:31;;;;;;;13.05;11.75;;;3.40;99.90;;;;;;6087853;23;20687;-69
2023/01/04 01:04:00;;;;;;;13.55;12.23;;;3.40;99.90;;;;;;6088947;23;20295;-69
2023/01/04 01:06:29;;;;;;;13.85;12.45;;;3.40;99.90;;;;;;6062578;23;20283;-69
2023/01/04 01:08:57;;;;;;;13.13;11.75;;;3.40;99.90;;;;;;6089879;23;20196;-69
2023/01/04 01:11:25;;;;;;;11.98;10.88;;;3.40;99.90;;;;;;6090150;23;20188;-68
2023/01/04 01:13:52;;;;;;;12.55;11.35;;;3.40;99.90;;;;;;6086627;23;20597;-69
2023/01/04 01:16:20;;;;;;;13.02;11.80;;;3.30;99.90;;;;;;6090683;23;20200;-69
2023/01/04 01:18:47;;;;;;;12.20;11.10;;;3.40;99.90;;;;;;6088909;23;20191;-69
2023/01/04 01:21:16;;;;;;;12.25;11.10;;;3.40;99.90;;;;;;6090286;23;20225;-69
2023/01/04 01:23:44;;;;;;;12.68;11.48;;;3.40;99.90;;;;;;6088784;23;20699;-69
2023/01/04 01:26:14;;;;;;;12.70;11.70;;;3.40;99.90;;;;;;6090687;23;20274;-69
2023/01/04 01:28:42;;;;;;;12.20;11.15;;;3.40;99.90;;;;;;6085576;23;20192;-67
2023/01/04 01:31:11;;;;;;;13.85;11.00;;;3.40;99.90;;;;;;6089334;23;20188;-69
2023/01/04 01:33:38;;;;;;;11.95;10.85;;;3.40;99.90;;;;;;6087640;23;20296;-68
2023/01/04 01:36:06;;;;;;;12.23;11.13;;;3.40;99.90;;;;;;6088303;23;20271;-68
2023/01/04 01:38:34;;;;;;;11.52;10.43;;;3.40;99.90;;;;;;6089019;23;20766;-68
2023/01/04 01:41:01;;;;;;;12.90;11.55;;;3.40;99.90;;;;;;6089966;23;20238;-69
2023/01/04 01:43:48;;;;;;;13.10;11.88;;;3.40;99.90;;;;;;6085384;23;20223;-69
2023/01/04 01:46:17;;;;;;;11.85;10.75;;;3.40;99.90;;;;;;6088741;23;20195;-68
2023/01/04 01:48:45;;;;;;;12.60;11.50;;;3.40;99.90;;;;;;6085120;23;20519;-68
2023/01/04 01:51:16;;;;;;;10.75;9.75;;;3.40;99.90;;;;;;6111958;23;20182;-68
2023/01/04 01:53:48;;;;;;;12.23;11.23;;;3.30;99.90;;;;;;6100601;23;20211;-68
2023/01/04 01:56:17;;;;;;;10.43;9.48;;;3.30;99.90;;;;;;6098964;23;20286;-68
2023/01/04 01:58:50;;;;;;;11.65;10.65;;;3.40;99.90;;;;;;6106780;23;20198;-68
2023/01/04 02:01:18;;;;;;;12.13;11.02;;;3.40;99.90;;;;;;6086937;23;20215;-68
2023/01/04 02:03:45;;;;;;;11.85;10.63;;;3.40;99.90;;;;;;6103376;23;20241;-68
2023/01/04 02:06:16;;;;;;;11.13;10.13;;;3.40;99.90;;;;;;6095678;23;20635;-68
2023/01/04 02:08:44;;;;;;;11.70;10.50;;;3.40;99.90;;;;;;6104159;23;20221;-68
2023/01/04 02:11:11;;;;;;;11.90;9.35;;;3.40;99.90;;;;;;6097972;23;20196;-68
2023/01/04 02:16:38;;;;;;;10.00;9.10;;;3.40;99.90;;;;;;6095456;23;20268;-68
2023/01/04 02:19:21;;;;;;;10.05;9.05;;;3.40;99.90;;;;;;6109949;23;20275;-68
2023/01/04 02:22:06;;;;;;;10.48;9.57;;;3.40;99.90;;;;;;6091877;23;20223;-68
2023/01/04 02:24:50;;;;;;;11.55;10.35;;;3.10;99.90;;;;;;6088380;23;20285;-68
2023/01/04 02:27:39;;;;;;;10.27;9.38;;;3.30;99.90;;;;;;6089936;23;20206;-68
2023/01/04 02:30:57;;;;;;;10.52;9.63;;;3.30;99.90;;;;;;6100145;23;20195;-68
2023/01/04 02:33:43;;;;;;;9.63;8.82;;;3.30;99.90;;;;;;6103750;23;20212;-68
2023/01/04 02:36:16;;;;;;;10.85;9.95;;;3.30;99.90;;;;;;6099710;23;20194;-68
2023/01/04 02:38:54;;;;;;;10.55;9.65;;;3.30;99.90;;;;;;6102772;23;20202;-68
2023/01/04 02:41:29;;;;;;;11.45;9.90;;;3.20;99.90;;;;;;6109991;23;20236;-68
2023/01/04 02:46:48;;;;;;;11.63;10.43;;;3.20;99.90;;;;;;6103816;23;20220;-68
2023/01/04 02:52:01;;;;;;;12.00;10.82;;;3.20;99.90;;;;;;6103958;23;20259;-68
2023/01/04 02:54:31;;;;;;;10.85;9.70;;;3.10;99.90;;;;;;6108882;23;20215;-67
2023/01/04 02:57:13;;;;;;;11.52;10.45;;;3.10;99.90;;;;;;6104094;23;20237;-68
2023/01/04 03:00:04;;;;;;;10.45;9.45;;;3.10;99.90;;;;;;6095082;23;20228;-68
2023/01/04 03:08:35;;;;;;;11.77;10.68;;;3.00;99.90;;;;;;6096280;23;20230;-68
2023/01/04 03:12:30;;;;;;;13.32;10.70;;;3.00;99.90;;;;;;6105797;23;20187;-68
2023/01/04 03:13:58;;;;;;;10.70;9.70;;;3.00;99.90;;;;;;6095542;23;20548;-68
2023/01/04 03:16:25;;;;;;;11.45;10.35;;;3.00;99.90;;;;;;6094140;23;20198;-67
2023/01/04 03:18:57;;;;;;;10.65;9.65;;;3.00;99.90;;;;;;6105143;23;20213;-68
2023/01/04 03:21:27;;;;;;;12.07;11.00;;;3.00;99.90;;;;;;6100084;23;20207;-68
2023/01/04 03:35:22;;;;;;;10.90;9.90;;;3.00;99.90;;;;;;6092414;23;20674;-68
2023/01/04 03:43:08;;;;;;;11.05;9.95;;;3.00;99.90;;;;;;6104380;23;20638;-68
2023/01/04 03:49:26;;;;;;;10.90;9.80;;;2.90;99.90;;;;;;6085755;23;20517;-68
2023/01/04 03:51:57;;;;;;;10.43;9.40;;;2.90;99.90;;;;;;6088190;23;20270;-68
2023/01/04 03:54:31;;;;;;;10.20;9.10;;;2.90;99.90;;;;;;6098083;23;20278;-68
2023/01/04 03:56:59;;;;;;;10.45;9.27;;;2.90;99.90;;;;;;6100759;23;20606;-68
2023/01/04 03:59:26;;;;;;;10.20;9.30;;;3.00;99.90;;;;;;6097659;23;20525;-68
2023/01/04 04:01:53;;;;;;;12.40;10.10;;;3.00;99.90;;;;;;6099259;23;20326;-68
2023/01/04 04:09:51;;;;;;;10.05;9.10;;;3.20;99.90;;;;;;6093223;23;20278;-68
2023/01/04 04:12:18;;;;;;;11.02;9.82;;;3.20;99.90;;;;;;6098362;23;20338;-68
2023/01/04 04:14:45;;;;;;;9.52;8.73;;;3.30;99.90;;;;;;6088240;23;20230;-68
2023/01/04 04:17:12;;;;;;;11.02;10.02;;;3.30;99.90;;;;;;6104338;23;20568;-68
2023/01/04 04:19:40;;;;;;;11.27;10.07;;;3.30;99.90;;;;;;6101793;23;20192;-68
2023/01/04 04:22:07;;;;;;;10.10;9.20;;;3.30;99.90;;;;;;6099808;23;20208;-68
2023/01/04 04:24:35;;;;;;;10.93;9.88;;;3.40;99.90;;;;;;6097383;23;20211;-68
2023/01/04 04:27:03;;;;;;;10.25;9.35;;;3.40;99.90;;;;;;6095790;23;20586;-68
2023/01/04 04:29:30;;;;;;;9.50;8.70;;;3.70;99.90;;;;;;6101579;23;20271;-68
2023/01/04 04:31:57;;;;;;;9.50;8.60;;;3.50;99.90;;;;;;6101008;23;20396;-68
2023/01/04 04:34:24;;;;;;;9.63;8.63;;;3.50;99.90;;;;;;6106247;23;20215;-68
2023/01/04 04:36:51;;;;;;;9.93;9.02;;;3.60;99.90;;;;;;6101048;23;20191;-68
2023/01/04 04:39:19;;;;;;;9.52;8.63;;;3.60;99.90;;;;;;6092046;23;20241;-68
2023/01/04 04:41:45;;;;;;;8.93;8.13;;;3.70;99.90;;;;;;6104943;23;20222;-68
2023/01/04 04:44:15;;;;;;;8.97;8.07;;;3.70;99.90;;;;;;6083265;23;20301;-68
2023/01/04 04:46:43;;;;;;;8.68;7.88;;;3.70;99.90;;;;;;6090494;23;21000;-68
2023/01/04 04:49:12;;;;;;;8.90;8.10;;;3.70;99.90;;;;;;6100758;23;20219;-68
2023/01/04 04:51:40;;;;;;;8.52;7.80;;;3.70;99.90;;;;;;6102066;23;20200;-68
2023/01/04 04:54:08;;;;;;;8.43;7.60;;;3.70;99.90;;;;;;6097642;23;20257;-68
2023/01/04 04:56:36;;;;;;;8.30;6.90;;;3.70;99.90;;;;;;6107796;23;20286;-68
2023/01/04 04:59:03;;;;;;;7.28;6.57;;;3.80;99.90;;;;;;6100766;23;20215;-69
2023/01/04 05:01:32;;;;;;;7.90;7.20;;;3.80;99.90;;;;;;6097642;23;20246;-69
2023/01/04 05:03:59;;;;;;;7.50;6.80;;;3.90;99.90;;;;;;6105197;23;20226;-68
2023/01/04 05:06:26;;;;;;;8.00;6.93;;;3.90;99.90;;;;;;6102868;23;20702;-68
2023/01/04 05:08:53;;;;;;;7.25;6.55;;;3.90;99.90;;;;;;6088521;23;20193;-69
2023/01/04 05:12:58;;;;;;;6.80;6.07;;;3.90;99.90;;;;;;6100864;23;20249;-68
2023/01/04 05:14:07;;;;;;;7.10;6.50;;;3.90;99.90;;;;;;6085771;23;20265;-68
2023/01/04 05:16:35;;;;;;;6.10;5.50;;;3.90;99.90;;;;;;6073551;23;20230;-69
2023/01/04 05:19:02;;;;;;;6.32;5.72;;;4.00;99.90;;;;;;6089871;23;20242;-68
2023/01/04 05:21:29;;;;;;;6.32;5.78;;;4.00;99.90;;;;;;6090072;23;20254;-68
2023/01/04 05:23:56;;;;;;;6.28;5.70;;;4.00;99.90;;;;;;6087619;23;20236;-69
2023/01/04 05:26:23;;;;;;;6.13;5.63;;;4.10;99.90;;;;;;6085315;23;20215;-68
2023/01/04 05:28:50;;;;;;;6.35;5.75;;;4.10;99.90;;;;;;6088144;23;20593;-69
2023/01/04 05:31:16;;;;;;;5.90;5.40;;;4.20;99.90;;;;;;6083799;23;20192;-69
2023/01/04 05:33:44;;;;;;;6.22;5.72;;;4.20;99.90;;;;;;6086007;23;20685;-69
2023/01/04 05:36:11;;;;;;;5.78;5.28;;;4.20;99.90;;;;;;6084508;23;20612;-69
2023/01/04 05:38:38;;;;;;;5.97;5.38;;;4.30;99.90;;;;;;6072903;23;20188;-69
2023/01/04 05:42:23;;;;;;;6.43;5.38;;;4.30;99.90;;;;;;6102062;23;20233;-69
2023/01/04 05:43:53;;;;;;;5.90;5.40;;;4.30;99.90;;;;;;6082039;23;20551;-69
2023/01/04 05:46:19;;;;;;;5.18;4.68;;;4.40;99.90;;;;;;6093095;23;20188;-69
2023/01/04 05:48:48;;;;;;;5.03;4.63;;;4.50;99.90;;;;;;6111151;22;20633;-69
2023/01/04 05:51:15;;;;;;;5.57;4.60;;;4.60;99.90;;;;;;6141474;23;20657;-72
2023/01/04 05:53:42;;;;;;;4.65;4.03;;;4.60;99.90;;;;;;6147929;23;20274;-69
2023/01/04 05:56:09;;;;;;;5.03;4.55;;;4.70;99.90;;;;;;6139633;23;20269;-69
2023/01/04 05:58:36;;;;;;;4.75;4.32;;;4.70;99.90;;;;;;6139695;23;20203;-69
2023/01/04 06:01:03;;;;;;;4.30;3.85;;;4.80;99.90;;;;;;6144988;23;20187;-67
2023/01/04 06:03:29;;;;;;;4.30;3.80;;;4.80;99.90;;;;;;6143351;23;20187;-68
2023/01/04 06:05:58;;;;;;;4.63;4.22;;;4.90;99.90;;;;;;6144564;23;20189;-69
2023/01/04 06:08:25;;;;;;;4.65;4.25;;;4.90;99.90;;;;;;6118115;23;20204;-69
2023/01/04 06:10:53;;;;;;;4.70;4.30;;;5.00;99.90;;;;;;6136238;23;20214;-69
2023/01/04 06:13:20;;;;;;;4.20;3.80;;;5.00;99.90;;;;;;6139559;23;20565;-68
2023/01/04 06:15:47;;;;;;;4.32;3.92;;;5.00;99.90;;;;;;6143996;23;20538;-76
2023/01/04 06:18:14;;;;;;;4.22;3.83;;;5.10;99.90;;;;;;6140025;23;20206;-79
2023/01/04 06:20:43;;;;;;;4.20;3.83;;;5.10;99.90;;;;;;6132465;23;20294;-73
2023/01/04 06:23:11;;;;;;;4.57;3.88;;;5.20;99.90;;;;;;6144743;23;20206;-77
2023/01/04 06:25:38;;;;;;;4.00;3.70;;;5.20;99.90;;;;;;6132222;23;20225;-69
2023/01/04 06:28:05;;;;;;;3.60;3.30;;;5.30;99.90;;;;;;6140003;23;20269;-70
2023/01/04 06:30:32;;;;;;;3.60;3.30;;;5.30;99.90;;;;;;6132904;23;20186;-76
2023/01/04 06:32:59;;;;;;;4.25;3.85;;;5.30;99.90;;;;;;6132122;23;20180;-69
2023/01/04 06:35:26;;;;;;;3.58;3.28;;;5.30;99.90;;;;;;6136487;23;20660;-69
2023/01/04 06:37:53;;;;;;;4.05;3.75;;;5.40;99.90;;;;;;6137831;23;20190;-69
2023/01/04 06:40:21;;;;;;;3.95;3.65;;;5.70;99.90;;;;;;6138162;23;20202;-69
2023/01/04 06:42:49;;;;;;;3.92;3.55;;;5.50;99.90;;;;;;6142016;23;20271;-69
2023/01/04 06:45:16;;;;;;;3.85;2.85;;;5.40;99.90;;;;;;6132138;23;20753;-69
2023/01/04 06:47:44;;;;;;;3.70;3.40;;;5.50;99.90;;;;;;6134959;23;20183;-69
2023/01/04 06:50:11;;;;;;;3.70;3.40;;;5.50;99.90;;;;;;6146981;23;20215;-69
2023/01/04 06:52:38;;;;;;;4.10;3.55;;;5.60;99.90;;;;;;6147428;23;20194;-69
2023/01/04 06:55:08;;;;;;;4.40;4.00;;;5.60;99.90;;;;;;6138262;23;20199;-71
2023/01/04 06:57:37;;;;;;;4.07;3.78;;;5.60;99.90;;;;;;6142049;23;20974;-71
2023/01/04 07:00:05;;;;;;;4.20;3.83;;;5.60;99.90;;;;;;6133711;23;20231;-70
2023/01/04 07:02:32;;;;;;;4.28;3.88;;;5.60;99.90;;;;;;6138179;23;20211;-69
2023/01/04 07:04:59;;;;;;;4.35;3.33;;;5.70;99.90;;;;;;6145591;23;20187;-70
2023/01/04 07:07:26;;;;;;;3.72;3.42;;;5.70;99.90;;;;;;6140813;23;20238;-70
2023/01/04 07:09:53;;;;;;;3.60;3.30;;;5.70;99.90;;;;;;6132359;23;20219;-69
2023/01/04 07:12:20;;;;;;;4.00;3.60;;;5.70;99.90;;;;;;6135103;23;20261;-73
2023/01/04 07:14:48;;;;;;;3.78;3.47;;;5.80;99.90;;;;;;6125020;23;20190;-75
2023/01/04 07:17:15;;;;;;;7.00;4.13;;;5.80;99.90;;;;;;6138174;23;20194;-72
2023/01/04 07:19:42;;;;;;;4.63;3.50;;;5.80;99.90;;;;;;6144091;23;20331;-72
2023/01/04 07:22:10;;;;;;;4.60;3.30;;;5.90;99.90;;;;;;6129739;23;20700;-71
2023/01/04 07:24:37;;;;;;;3.60;3.30;;;5.90;99.90;;;;;;6142389;23;20180;-67
2023/01/04 07:27:05;;;;;;;3.70;3.40;;;5.90;99.90;;;;;;6135315;23;20188;-69
2023/01/04 07:29:33;;;;;;;4.25;3.60;;;6.00;99.90;;;;;;6133688;23;20203;-69
2023/01/04 07:32:01;;;;;;;4.28;3.88;;;6.00;99.90;;;;;;6143925;23;20226;-69
2023/01/04 07:34:28;;;;;;;4.30;3.25;;;6.00;99.90;;;;;;6144678;23;20807;-69
2023/01/04 07:36:55;;;;;;;4.15;3.30;;;6.00;99.90;;;;;;6132838;23;20189;-70
2023/01/04 07:39:22;;;;;;;3.70;3.40;;;6.00;99.90;;;;;;6135796;23;20214;-69
2023/01/04 07:41:50;;;;;;;5.30;4.18;;;6.00;99.90;;;;;;6136079;23;20673;-68
2023/01/04 07:44:17;;;;;;;4.68;4.28;;;5.90;99.90;;;;;;6134805;23;20228;-68
2023/01/04 07:46:44;;;;;;;5.72;3.88;;;5.80;99.90;;;;;;6130295;23;20182;-69
2023/01/04 07:49:15;;;;;;;4.72;4.25;;;5.70;99.90;;;;;;6140101;23;20297;-69
2023/01/04 07:51:42;;;;;;;4.40;4.07;;;5.70;99.90;;;;;;6138349;23;20202;-69
2023/01/04 07:54:09;;;;;;;4.97;4.05;;;5.70;99.90;;;;;;6136393;23;20187;-70
2023/01/04 07:56:37;;;;;;;4.45;4.05;;;5.60;99.90;;;;;;6145847;23;20229;-74
2023/01/04 07:59:05;;;;;;;4.88;4.45;;;5.60;99.90;;;;;;6138868;23;20286;-74
2023/01/04 08:01:34;;;;;;;4.90;4.25;;;5.50;99.90;;;;;;6136313;23;20270;-74
2023/01/04 08:04:01;;;;;;;5.65;4.88;;;5.50;99.90;;;;;;6135052;23;20630;-69
2023/01/04 08:06:30;;;;;;;5.57;5.05;;;5.40;99.90;;;;;;6132541;23;20179;-69
2023/01/04 08:08:57;;;;;;;7.05;4.78;;;5.40;99.90;;;;;;6136043;23;20226;-70
2023/01/04 08:11:25;;;;;;;5.60;5.10;;;5.40;99.90;;;;;;6142816;23;20179;-70
2023/01/04 08:13:52;;;;;;;5.82;5.22;;;5.40;99.90;;;;;;6144958;23;20187;-70
2023/01/04 08:16:22;;;;;;;7.25;5.45;;;5.40;99.90;;;;;;6134169;23;20586;-70
2023/01/04 08:18:53;;;;;;;6.90;5.18;;;5.40;99.90;;;;;;6141388;23;20565;-70
2023/01/04 08:21:20;;;;;;;5.40;4.90;;;5.40;99.90;;;;;;6141183;23;20189;-71
2023/01/04 08:23:48;;;;;;;5.72;5.22;;;5.40;99.90;;;;;;6138622;23;20718;-71
2023/01/04 08:26:17;;;;;;;5.05;4.55;;;5.40;99.90;;;;;;6141699;23;20282;-71
2023/01/04 08:28:44;;;;;;;5.53;5.00;;;5.40;99.90;;;;;;6133770;23;20282;-71
2023/01/04 08:31:14;;;;;;;5.25;4.50;;;5.40;99.90;;;;;;6138865;23;20264;-70
2023/01/04 08:33:42;;;;;;;5.20;4.70;;;5.50;99.90;;;;;;6133638;23;20189;-71
2023/01/04 08:36:12;;;;;;;5.07;4.57;;;5.50;99.90;;;;;;6119630;23;20194;-70
2023/01/04 08:38:39;;;;;;;8.13;5.18;;;5.50;99.90;;;;;;6134019;23;20870;-71
2023/01/04 08:41:07;;;;;;;5.50;5.00;;;5.60;99.90;;;;;;6130747;23;20791;-70
2023/01/04 08:43:35;;;;;;;4.95;4.10;;;5.60;99.90;;;;;;6141691;23;20214;-69
2023/01/04 08:46:03;;;;;;;4.22;3.92;;;5.70;99.90;;;;;;6130001;23;20191;-70
2023/01/04 08:48:31;;;;;;;4.65;3.90;;;5.70;99.90;;;;;;6146026;23;20222;-70
2023/01/04 08:50:59;;;;;;;5.55;5.05;;;5.70;99.90;;;;;;6142097;23;20257;-70
2023/01/04 08:53:26;;;;;;;4.30;3.90;;;5.80;99.90;;;;;;6139607;23;20187;-69
2023/01/04 08:55:54;;;;;;;4.68;4.00;;;5.80;99.90;;;;;;6142560;23;20208;-70
2023/01/04 08:58:23;;;;;;;3.80;3.50;;;5.90;99.90;;;;;;6141323;23;20697;-69
2023/01/04 09:00:50;;;;;;;3.72;3.42;;;6.00;99.90;;;;;;6141352;23;20179;-71
2023/01/04 09:03:17;;;;;;;3.58;3.25;;;6.00;99.90;;;;;;6139965;23;20255;-71
2023/01/04 09:05:45;;;;;;;3.83;3.53;;;6.00;99.90;;;;;;6128276;23;20641;-71
2023/01/04 09:08:12;;;;;;;4.40;3.72;;;6.10;99.90;;;;;;6129026;23;20238;-71
2023/01/04 09:10:40;;;;;;;3.97;3.13;;;6.10;99.90;;;;;;6130301;23;20274;-71
2023/01/04 09:13:07;;;;;;;3.70;3.38;;;6.10;99.90;;;;;;6139513;23;20197;-72
2023/01/04 09:15:35;;;;;;;3.20;2.90;;;6.20;99.90;;;;;;6122913;23;20199;-70
2023/01/04 09:18:03;;;;;;;4.45;3.35;;;6.20;99.90;;;;;;6130986;23;20579;-72
2023/01/04 09:20:30;;;;;;;3.85;3.50;;;6.20;99.90;;;;;;6134372;23;20187;-71
2023/01/04 09:22:58;;;;;;;3.30;2.83;;;6.30;99.90;;;;;;6135971;23;20566;-71
2023/01/04 09:25:25;;;;;;;3.05;0.93;;;6.40;99.90;;;;;;6130768;23;20183;-71
2023/01/04 09:27:53;;;;;;;1.48;1.38;;;6.40;99.90;;;;;;6139324;23;20678;-71
2023/01/04 09:30:20;;;;;;;2.75;1.30;;;6.60;99.90;;;;;;6141699;23;20643;-71
2023/01/04 09:32:49;;;;;;;3.15;1.00;;;6.80;99.90;;;;;;6129852;23;20190;-71
2023/01/04 09:35:16;;;;;;;2.35;1.20;;;6.90;99.90;;;;;;6142873;23;20187;-70
2023/01/04 09:37:43;;;;;;;3.40;1.20;;;7.10;99.90;;;;;;6129729;23;20189;-70
2023/01/04 09:40:22;;;;;;;1.25;0.98;;;7.30;99.90;;;;;;6136967;23;20233;-71
2023/01/04 09:42:50;;;;;;;3.45;0.82;;;7.50;99.90;;;;;;6130671;23;20291;-70
2023/01/04 09:45:20;;;;;;;1.85;1.00;;;7.60;99.90;;;;;;6140098;23;20267;-71
2023/01/04 09:47:54;;;;;;;1.33;0.95;;;7.70;99.90;;;;;;6129460;23;20726;-70
2023/01/04 09:50:24;;;;;;;1.50;1.00;;;7.80;99.90;;;;;;6139330;23;20192;-70
2023/01/04 09:53:02;;;;;;;1.20;1.08;;;7.90;99.90;;;;;;6141905;23;20187;-70
2023/01/04 09:55:34;;;;;;;1.30;1.00;;;7.90;99.90;;;;;;6146059;23;20205;-70
2023/01/04 09:58:05;;;;;;;1.63;1.10;;;8.00;99.90;;;;;;6142111;23;20207;-69
2023/01/04 10:00:35;;;;;;;1.92;1.17;;;8.10;99.90;;;;;;6137789;23;20640;-70
2023/01/04 10:03:13;;;;;;;1.73;1.00;;;8.10;99.90;;;;;;6132892;23;20685;-68
2023/01/04 10:05:40;;;;;;;3.05;1.05;;;8.10;99.90;;;;;;6143736;23;20776;-70
2023/01/04 10:08:16;;;;;;;2.08;1.10;;;8.10;99.90;;;;;;6122657;23;20240;-70
2023/01/04 10:11:07;;;;;;;1.10;0.93;;;8.40;99.90;;;;;;6131254;23;20599;-69
2023/01/04 10:13:55;;;;;;;1.80;1.10;;;8.20;99.90;;;;;;6126812;23;20180;-70
2023/01/04 10:16:36;;;;;;;1.30;0.90;;;8.20;99.90;;;;;;6134511;23;20185;-71
2023/01/04 10:19:17;;;;;;;1.67;1.15;;;8.20;99.90;;;;;;6139042;23;20216;-70
2023/01/04 10:21:48;;;;;;;2.22;1.15;;;8.20;99.90;;;;;;6145157;23;20230;-70
2023/01/04 10:24:41;;;;;;;1.58;1.10;;;8.30;99.90;;;;;;6136334;23;20275;-71
2023/01/04 10:27:18;;;;;;;1.20;0.85;;;8.40;99.90;;;;;;6133818;23;20626;-70
2023/01/04 10:29:56;;;;;;;1.30;1.00;;;8.40;99.90;;;;;;6125463;23;20181;-70
2023/01/04 10:32:35;;;;;;;1.40;0.90;;;8.40;99.90;;;;;;6130529;23;20187;-71
2023/01/04 10:35:17;;;;;;;1.20;0.95;;;8.50;99.90;;;;;;6113398;23;20246;-70
2023/01/04 10:37:46;;;;;;;1.50;0.90;;;8.60;99.90;;;;;;6138497;23;20281;-70
2023/01/04 10:40:16;;;;;;;1.10;0.80;;;8.60;99.90;;;;;;6147367;23;20190;-70
2023/01/04 10:42:52;;;;;;;4.05;1.20;;;8.70;99.90;;;;;;6120774;23;20189;-80
2023/01/04 10:45:26;;;;;;;1.20;0.98;;;8.70;99.90;;;;;;6121192;23;20926;-69
2023/01/04 10:48:01;;;;;;;1.15;0.93;;;8.80;99.90;;;;;;6124834;23;20206;-71
2023/01/04 10:50:34;;;;;;;1.73;0.98;;;8.80;99.90;;;;;;6135608;23;20196;-70
2023/01/04 10:53:07;;;;;;;1.65;0.88;;;8.90;99.90;;;;;;6138259;23;20263;-70
2023/01/04 10:55:40;;;;;;;1.00;0.90;;;8.90;99.90;;;;;;6132916;23;20190;-70
2023/01/04 10:58:15;;;;;;;1.75;1.00;;;9.00;99.90;;;;;;6145839;23;20242;-70
2023/01/04 11:00:48;;;;;;;1.63;1.00;;;9.10;99.90;;;;;;6146132;23;20189;-70
2023/01/04 11:03:20;;;;;;;2.28;1.15;;;9.10;99.90;;;;;;6126563;23;20210;-70
2023/01/04 11:05:55;;;;;;;2.03;1.02;;;9.20;99.90;;;;;;6132006;23;20186;-69
2023/01/04 11:08:26;;;;;;;1.05;0.95;;;9.20;99.90;;;;;;6133788;23;20272;-70
2023/01/04 11:10:59;;;;;;;1.80;0.90;;;9.30;99.90;;;;;;6136325;23;20194;-70
2023/01/04 11:13:26;;;;;;;2.25;0.90;;;9.30;99.90;;;;;;6132889;23;20186;-70
2023/01/04 11:15:55;;;;;;;1.05;0.70;;;9.40;99.90;;;;;;6133925;23;20183;-69
2023/01/04 11:18:22;;;;;;;1.40;1.00;;;9.40;99.90;;;;;;6133140;23;20600;-70
2023/01/04 11:20:50;;;;;;;1.15;0.85;;;9.40;99.90;;;;;;6140332;23;20561;-70
2023/01/04 11:23:20;;;;;;;2.08;0.90;;;9.50;99.90;;;;;;6140284;23;20228;-70
2023/01/04 11:25:49;;;;;;;1.67;0.80;;;9.50;99.90;;;;;;6134539;23;20210;-70
2023/01/04 11:28:21;;;;;;;1.25;1.10;;;9.50;99.90;;;;;;6125218;23;20231;-71
2023/01/04 11:31:02;;;;;;;2.10;0.90;;;9.50;99.90;;;;;;6132729;23;20184;-70
2023/01/04 11:33:29;;;;;;;1.13;0.80;;;9.60;99.90;;;;;;6131031;23;20186;-71
2023/01/04 11:36:00;;;;;;;2.15;0.90;;;9.60;99.90;;;;;;6133555;23;20182;-71
2023/01/04 11:38:29;;;;;;;1.55;1.10;;;9.60;99.90;;;;;;6142468;23;20203;-70
2023/01/04 11:41:01;;;;;;;2.08;0.90;;;9.60;99.90;;;;;;6132291;23;20297;-70
2023/01/04 11:43:30;;;;;;;1.05;0.90;;;9.60;99.90;;;;;;6134476;23;20206;-70
2023/01/04 11:46:00;;;;;;;2.53;0.90;;;9.60;99.90;;;;;;6141248;23;20255;-71
2023/01/04 11:48:48;;;;;;;1.25;1.00;;;9.60;99.90;;;;;;6134822;23;20286;-70
2023/01/04 11:51:20;;;;;;;2.55;1.20;;;9.60;99.90;;;;;;6126890;23;20590;-71
2023/01/04 11:53:57;;;;;;;1.27;0.90;;;9.60;99.90;;;;;;6121323;23;20780;-71
2023/01/04 11:56:28;;;;;;;1.20;1.10;;;9.70;99.90;;;;;;6134810;23;20186;-69
2023/01/04 11:59:13;;;;;;;2.97;1.02;;;9.70;99.90;;;;;;6130790;23;20707;-70
2023/01/04 12:01:43;;;;;;;1.92;0.80;;;9.70;99.90;;;;;;6138319;23;20219;-70
2023/01/04 12:04:13;;;;;;;0.80;0.80;;;9.70;99.90;;;;;;6125143;23;20687;-71
2023/01/04 12:06:47;;;;;;;1.45;0.90;;;9.70;99.90;;;;;;6123979;23;20258;-70
2023/01/04 12:09:16;;;;;;;0.90;0.80;;;9.70;99.90;;;;;;6120342;23;20558;-70
2023/01/04 12:11:46;;;;;;;1.25;0.80;;;9.70;99.90;;;;;;6127820;23;20187;-70
2023/01/04 12:14:20;;;;;;;1.17;0.88;;;9.70;99.90;;;;;;6133855;23;20229;-70
2023/01/04 12:16:56;;;;;;;1.58;0.88;;;9.70;99.90;;;;;;6122284;23;20194;-70
2023/01/04 12:19:24;;;;;;;1.33;0.88;;;9.70;99.90;;;;;;6124700;23;20207;-71
2023/01/04 12:21:56;;;;;;;1.30;0.90;;;9.80;99.90;;;;;;6128459;23;20183;-70
2023/01/04 12:24:25;;;;;;;1.10;0.90;;;9.80;99.90;;;;;;6136029;23;20214;-70
2023/01/04 12:26:53;;;;;;;2.38;0.80;;;9.80;99.90;;;;;;6131485;23;20179;-70
2023/01/04 12:29:41;;;;;;;2.58;1.00;;;9.80;99.90;;;;;;6138884;23;20230;-70
2023/01/04 12:32:46;;;;;;;2.33;1.10;;;9.90;99.90;;;;;;6138805;23;20247;-70
2023/01/04 12:35:59;;;;;;;2.22;1.30;;;9.90;99.90;;;;;;6133259;23;20637;-71
2023/01/04 12:39:06;;;;;;;2.17;1.10;;;9.80;99.90;;;;;;6136777;23;20323;-71
2023/01/04 12:42:16;;;;;;;1.10;0.77;;;9.80;99.90;;;;;;6126607;23;20186;-70
2023/01/04 12:45:09;;;;;;;1.55;1.02;;;9.80;99.90;;;;;;6143314;23;20210;-71
2023/01/04 12:50:28;;;;;;;1.88;0.90;;;9.80;99.90;;;;;;6142054;23;20246;-70
2023/01/04 12:52:57;;;;;;;1.30;0.90;;;9.80;99.90;;;;;;6137961;23;20270;-71
2023/01/04 12:55:54;;;;;;;1.73;1.10;;;9.80;99.90;;;;;;6141362;23;20400;-71
2023/01/04 12:59:04;;;;;;;1.20;1.00;;;9.80;99.90;;;;;;6135464;23;20286;-71
2023/01/04 13:01:31;;;;;;;1.40;0.90;;;9.80;99.90;;;;;;6130514;23;20189;-71
2023/01/04 13:04:01;;;;;;;1.15;1.05;;;9.80;99.90;;;;;;6140985;23;20305;-70
2023/01/04 13:06:33;;;;;;;2.55;0.90;;;9.80;99.90;;;;;;6131806;23;20266;-70
2023/01/04 13:09:01;;;;;;;1.35;0.80;;;9.80;99.90;;;;;;6132664;23;20208;-70
2023/01/04 13:11:52;;;;;;;2.15;1.02;;;9.90;99.90;;;;;;6128633;23;20187;-70
2023/01/04 13:14:26;;;;;;;1.10;1.00;;;9.90;99.90;;;;;;6132156;23;20516;-70
2023/01/04 13:17:11;;;;;;;2.35;1.00;;;10.00;99.90;;;;;;6136134;23;20191;-71
2023/01/04 13:19:40;;;;;;;2.70;0.95;;;10.00;99.90;;;;;;6136815;23;20187;-71
2023/01/04 13:22:16;;;;;;;1.27;0.82;;;10.10;99.90;;;;;;6141443;23;20183;-71
2023/01/04 13:24:44;;;;;;;0.82;0.70;;;10.10;99.90;;;;;;6131549;23;20210;-71
2023/01/04 13:27:17;;;;;;;0.93;0.80;;;10.10;99.90;;;;;;6134846;23;20271;-76
2023/01/04 13:29:46;;;;;;;1.75;1.00;;;10.20;99.90;;;;;;6137444;23;20677;-71
2023/01/04 13:32:16;;;;;;;1.10;0.90;;;10.20;99.90;;;;;;6132732;23;20180;-70
2023/01/04 13:34:51;;;;;;;1.67;0.80;;;10.30;99.90;;;;;;6127803;23;20191;-76
2023/01/04 13:37:28;;;;;;;2.13;1.00;;;10.30;99.90;;;;;;6140030;23;20295;-70
2023/01/04 13:40:24;;;;;;;1.00;0.70;;;10.30;99.90;;;;;;6143839;23;20188;-70
2023/01/04 13:43:12;;;;;;;1.63;0.80;;;10.40;99.90;;;;;;6117883;23;20184;-70
2023/01/04 13:46:05;;;;;;;1.67;1.10;;;10.40;99.90;;;;;;6129653;23;20709;-70
2023/01/04 13:48:36;;;;;;;1.85;1.00;;;10.40;99.90;;;;;;6131501;23;20234;-69
2023/01/04 13:51:13;;;;;;;1.25;0.90;;;10.50;99.90;;;;;;6131755;23;20243;-70
2023/01/04 13:53:40;;;;;;;0.70;0.70;;;10.50;99.90;;;;;;6130597;23;20182;-70
2023/01/04 13:56:20;;;;;;;0.88;0.70;;;10.50;99.90;;;;;;6129536;23;20266;-70